Terminal Aerodrome Forecast
Issued by NWS

Home | Current Version | Previous Version | Text Only | Print | Product List | Glossary On
Versions: 1 2 3 4 5 6 7 8 9 10 11 12 13 14 15 16 17 18 19
000
FTUS45 KMSO 271720
TAFSMN
TAF
KSMN 271720Z 2718/2818 21010G22KT P6SM -SHRA BKN045 OVC090
     FM271900 36006KT P6SM VCSH BKN050
     FM272200 33010G20KT P6SM VCTS BKN050CB
     FM280000 36007KT P6SM -SHRA BKN050
     FM280300 VRB05KT P6SM SCT050 OVC100
      AMD LTD TO CLD VIS AND WIND=

USA.gov is the U.S. government's official web portal to all federal, state and local government web resources and services.